sensor_id;sensor_type;location;lat;lon;timestamp;pressure;altitude;pressure_sealevel;temperature;humidity
64158;BME280;50449;51.528;5.076;2023-02-23T00:01:29;101172.19;;;10.65;70.73
64158;BME280;50449;51.528;5.076;2023-02-23T00:03:57;101177.59;;;10.65;70.83
64158;BME280;50449;51.528;5.076;2023-02-23T00:06:28;101171.38;;;10.64;70.65
64158;BME280;50449;51.528;5.076;2023-02-23T00:08:54;101175.13;;;10.63;70.82
64158;BME280;50449;51.528;5.076;2023-02-23T00:11:20;101177.00;;;10.63;70.91
64158;BME280;50449;51.528;5.076;2023-02-23T00:13:48;101177.00;;;10.63;70.79
64158;BME280;50449;51.528;5.076;2023-02-23T00:16:22;101173.50;;;10.62;70.90
64158;BME280;50449;51.528;5.076;2023-02-23T00:18:56;101175.13;;;10.63;70.90
64158;BME280;50449;51.528;5.076;2023-02-23T00:21:30;101173.50;;;10.62;70.71
64158;BME280;50449;51.528;5.076;2023-02-23T00:23:59;101177.25;;;10.61;70.68
64158;BME280;50449;51.528;5.076;2023-02-23T00:26:29;101169.97;;;10.61;70.66
64158;BME280;50449;51.528;5.076;2023-02-23T00:28:58;101171.84;;;10.61;70.71
64158;BME280;50449;51.528;5.076;2023-02-23T00:31:25;101173.72;;;10.60;70.62
64158;BME280;50449;51.528;5.076;2023-02-23T00:33:56;101168.31;;;10.60;70.63
64158;BME280;50449;51.528;5.076;2023-02-23T00:36:25;101175.59;;;10.60;70.94
64158;BME280;50449;51.528;5.076;2023-02-23T00:38:52;101166.69;;;10.59;70.81
64158;BME280;50449;51.528;5.076;2023-02-23T00:41:19;101175.59;;;10.60;70.92
64158;BME280;50449;51.528;5.076;2023-02-23T00:43:47;101166.69;;;10.59;70.93
64158;BME280;50449;51.528;5.076;2023-02-23T00:46:17;101159.63;;;10.58;71.06
64158;BME280;50449;51.528;5.076;2023-02-23T00:48:44;101165.84;;;10.59;70.92
64158;BME280;50449;51.528;5.076;2023-02-23T00:51:10;101165.03;;;10.58;70.77
64158;BME280;50449;51.528;5.076;2023-02-23T00:53:36;101171.25;;;10.59;70.69
64158;BME280;50449;51.528;5.076;2023-02-23T00:56:06;101162.34;;;10.58;70.84
64158;BME280;50449;51.528;5.076;2023-02-23T00:58:32;101166.91;;;10.58;70.87
64158;BME280;50449;51.528;5.076;2023-02-23T01:00:58;101168.78;;;10.57;70.73
64158;BME280;50449;51.528;5.076;2023-02-23T01:03:24;101168.78;;;10.57;70.83
64158;BME280;50449;51.528;5.076;2023-02-23T01:05:50;101167.16;;;10.56;70.93
64158;BME280;50449;51.528;5.076;2023-02-23T01:08:17;101170.66;;;10.57;70.96
64158;BME280;50449;51.528;5.076;2023-02-23T01:10:43;101175.25;;;10.56;70.85
64158;BME280;50449;51.528;5.076;2023-02-23T01:13:17;101175.25;;;10.56;70.90
64158;BME280;50449;51.528;5.076;2023-02-23T01:15:43;101171.72;;;10.56;70.95
64158;BME280;50449;51.528;5.076;2023-02-23T01:18:09;101171.72;;;10.56;70.77
64158;BME280;50449;51.528;5.076;2023-02-23T01:20:35;101176.28;;;10.55;70.72
64158;BME280;50449;51.528;5.076;2023-02-23T01:23:02;101179.00;;;10.55;70.83
64158;BME280;50449;51.528;5.076;2023-02-23T01:25:27;101181.69;;;10.55;71.03
64158;BME280;50449;51.528;5.076;2023-02-23T01:27:54;101184.38;;;10.55;70.76
64158;BME280;50449;51.528;5.076;2023-02-23T01:30:20;101177.34;;;10.54;70.66
64158;BME280;50449;51.528;5.076;2023-02-23T01:32:46;101180.88;;;10.55;70.96
64158;BME280;50449;51.528;5.076;2023-02-23T01:35:12;101182.75;;;10.54;70.75
64158;BME280;50449;51.528;5.076;2023-02-23T01:37:40;101187.34;;;10.54;70.66
64158;BME280;50449;51.528;5.076;2023-02-23T01:40:14;101182.75;;;10.54;70.72
64158;BME280;50449;51.528;5.076;2023-02-23T01:42:43;101180.06;;;10.54;71.03
64158;BME280;50449;51.528;5.076;2023-02-23T01:47:48;101190.25;;;10.52;70.68
64158;BME280;50449;51.528;5.076;2023-02-23T01:50:14;101185.09;;;10.51;70.67
64158;BME280;50449;51.528;5.076;2023-02-23T01:52:42;101188.63;;;10.51;70.61
64158;BME280;50449;51.528;5.076;2023-02-23T01:55:08;101191.31;;;10.51;70.76
64158;BME280;50449;51.528;5.076;2023-02-23T01:57:37;101187.81;;;10.51;70.88
64158;BME280;50449;51.528;5.076;2023-02-23T02:00:05;101195.06;;;10.50;70.76
64158;BME280;50449;51.528;5.076;2023-02-23T02:02:38;101199.66;;;10.50;70.86
64158;BME280;50449;51.528;5.076;2023-02-23T02:05:04;101198.03;;;10.49;70.73
64158;BME280;50449;51.528;5.076;2023-02-23T02:07:36;101196.13;;;10.49;70.74
64158;BME280;50449;51.528;5.076;2023-02-23T02:10:04;101193.44;;;10.49;70.71
64158;BME280;50449;51.528;5.076;2023-02-23T02:12:39;101194.50;;;10.48;70.80
64158;BME280;50449;51.528;5.076;2023-02-23T02:15:07;101195.31;;;10.49;70.73
64158;BME280;50449;51.528;5.076;2023-02-23T02:25:58;101184.72;;;10.47;70.75
64158;BME280;50449;51.528;5.076;2023-02-23T02:31:28;101186.84;;;10.45;70.73
64158;BME280;50449;51.528;5.076;2023-02-23T02:42:25;101180.84;;;10.43;70.53
64158;BME280;50449;51.528;5.076;2023-02-23T02:45:07;101193.31;;;10.44;70.92
64158;BME280;50449;51.528;5.076;2023-02-23T02:47:45;101181.69;;;10.44;70.87
64158;BME280;50449;51.528;5.076;2023-02-23T02:50:26;101182.50;;;10.44;70.66
64158;BME280;50449;51.528;5.076;2023-02-23T02:53:04;101184.38;;;10.44;70.56
64158;BME280;50449;51.528;5.076;2023-02-23T02:55:32;101176.50;;;10.42;70.74
64158;BME280;50449;51.528;5.076;2023-02-23T02:58:01;101178.97;;;10.44;70.75
64158;BME280;50449;51.528;5.076;2023-02-23T03:00:40;101170.03;;;10.43;70.86
64158;BME280;50449;51.528;5.076;2023-02-23T03:06:21;101175.69;;;10.42;70.95
64158;BME280;50449;51.528;5.076;2023-02-23T03:09:23;101182.97;;;10.41;70.97
64158;BME280;50449;51.528;5.076;2023-02-23T03:15:32;101184.00;;;10.40;70.92
64158;BME280;50449;51.528;5.076;2023-02-23T03:21:30;101192.34;;;10.38;71.02
64158;BME280;50449;51.528;5.076;2023-02-23T03:24:41;101197.75;;;10.38;70.91
64158;BME280;50449;51.528;5.076;2023-02-23T03:27:47;101198.78;;;10.37;70.82
64158;BME280;50449;51.528;5.076;2023-02-23T03:30:48;101199.84;;;10.36;70.71
64158;BME280;50449;51.528;5.076;2023-02-23T03:36:27;101207.13;;;10.36;70.88
64158;BME280;50449;51.528;5.076;2023-02-23T03:39:33;101206.28;;;10.35;70.90
64158;BME280;50449;51.528;5.076;2023-02-23T03:42:24;101211.69;;;10.35;71.04
64158;BME280;50449;51.528;5.076;2023-02-23T03:45:14;101200.88;;;10.35;70.81
64158;BME280;50449;51.528;5.076;2023-02-23T03:48:02;101201.97;;;10.34;70.90
64158;BME280;50449;51.528;5.076;2023-02-23T03:50:52;101201.97;;;10.34;70.83
64158;BME280;50449;51.528;5.076;2023-02-23T03:56:41;101201.34;;;10.32;70.81
64158;BME280;50449;51.528;5.076;2023-02-23T03:59:30;101202.19;;;10.33;70.79
64158;BME280;50449;51.528;5.076;2023-02-23T04:02:16;101205.94;;;10.32;70.96
64158;BME280;50449;51.528;5.076;2023-02-23T04:05:05;101207.56;;;10.33;70.83
64158;BME280;50449;51.528;5.076;2023-02-23T04:07:51;101208.63;;;10.32;70.59
64158;BME280;50449;51.528;5.076;2023-02-23T04:10:43;101207.81;;;10.31;70.75
64158;BME280;50449;51.528;5.076;2023-02-23T04:13:30;101205.34;;;10.30;70.86
64158;BME280;50449;51.528;5.076;2023-02-23T04:16:00;101216.75;;;10.32;70.90
64158;BME280;50449;51.528;5.076;2023-02-23T04:18:30;101209.72;;;10.31;70.79
64158;BME280;50449;51.528;5.076;2023-02-23T04:20:58;101214.25;;;10.30;70.74
64158;BME280;50449;51.528;5.076;2023-02-23T04:23:24;101216.75;;;10.32;70.99
64158;BME280;50449;51.528;5.076;2023-02-23T04:25:51;101222.16;;;10.32;70.88
64158;BME280;50449;51.528;5.076;2023-02-23T04:28:17;101215.91;;;10.31;70.91
64158;BME280;50449;51.528;5.076;2023-02-23T04:30:42;101223.22;;;10.31;70.81
64158;BME280;50449;51.528;5.076;2023-02-23T04:33:08;101220.50;;;10.31;71.01
64158;BME280;50449;51.528;5.076;2023-02-23T04:35:34;101225.91;;;10.31;70.78
64158;BME280;50449;51.528;5.076;2023-02-23T04:38:00;101221.53;;;10.30;70.84
64158;BME280;50449;51.528;5.076;2023-02-23T04:40:26;101219.66;;;10.30;70.66
64158;BME280;50449;51.528;5.076;2023-02-23T04:42:52;101226.94;;;10.30;70.99
64158;BME280;50449;51.528;5.076;2023-02-23T04:45:18;101230.47;;;10.30;70.94
64158;BME280;50449;51.528;5.076;2023-02-23T04:47:43;101223.44;;;10.29;71.12
64158;BME280;50449;51.528;5.076;2023-02-23T04:50:11;101233.41;;;10.29;71.05
64158;BME280;50449;51.528;5.076;2023-02-23T04:52:37;101227.19;;;10.28;70.97
64158;BME280;50449;51.528;5.076;2023-02-23T04:55:04;101230.72;;;10.29;70.84
64158;BME280;50449;51.528;5.076;2023-02-23T04:57:31;101237.13;;;10.28;71.02
64158;BME280;50449;51.528;5.076;2023-02-23T04:59:57;101235.28;;;10.28;71.08
64158;BME280;50449;51.528;5.076;2023-02-23T05:02:22;101237.13;;;10.28;70.77
64158;BME280;50449;51.528;5.076;2023-02-23T05:04:48;101232.78;;;10.27;70.94
64158;BME280;50449;51.528;5.076;2023-02-23T05:07:13;101235.47;;;10.27;70.97
64158;BME280;50449;51.528;5.076;2023-02-23T05:09:39;101239.00;;;10.27;71.03
64158;BME280;50449;51.528;5.076;2023-02-23T05:12:04;101232.78;;;10.27;70.99
64158;BME280;50449;51.528;5.076;2023-02-23T05:14:30;101233.00;;;10.25;70.83
64158;BME280;50449;51.528;5.076;2023-02-23T05:16:55;101241.09;;;10.25;70.69
64158;BME280;50449;51.528;5.076;2023-02-23T05:19:21;101237.56;;;10.25;71.00
64158;BME280;50449;51.528;5.076;2023-02-23T05:21:46;101235.13;;;10.23;70.75
64158;BME280;50449;51.528;5.076;2023-02-23T05:24:12;101234.06;;;10.24;70.77
64158;BME280;50449;51.528;5.076;2023-02-23T05:26:37;101240.53;;;10.23;70.94
64158;BME280;50449;51.528;5.076;2023-02-23T05:29:03;101239.66;;;10.23;71.13
64158;BME280;50449;51.528;5.076;2023-02-23T05:31:28;101244.03;;;10.24;70.99
64158;BME280;50449;51.528;5.076;2023-02-23T05:33:54;101246.94;;;10.22;70.88
64158;BME280;50449;51.528;5.076;2023-02-23T05:36:20;101252.34;;;10.22;70.78
64158;BME280;50449;51.528;5.076;2023-02-23T05:38:46;101255.06;;;10.22;70.77
64158;BME280;50449;51.528;5.076;2023-02-23T05:41:15;101249.66;;;10.22;70.93
64158;BME280;50449;51.528;5.076;2023-02-23T05:43:41;101253.41;;;10.21;70.83
64158;BME280;50449;51.528;5.076;2023-02-23T05:46:13;101250.94;;;10.19;70.89
64158;BME280;50449;51.528;5.076;2023-02-23T05:48:39;101251.19;;;10.18;70.75
64158;BME280;50449;51.528;5.076;2023-02-23T05:51:07;101257.63;;;10.17;71.05
64158;BME280;50449;51.528;5.076;2023-02-23T05:53:33;101248.47;;;10.18;70.91
64158;BME280;50449;51.528;5.076;2023-02-23T05:56:00;101247.63;;;10.17;70.76
64158;BME280;50449;51.528;5.076;2023-02-23T05:58:26;101246.81;;;10.17;70.89
64158;BME280;50449;51.528;5.076;2023-02-23T06:00:51;101250.34;;;10.17;70.86
64158;BME280;50449;51.528;5.076;2023-02-23T06:03:17;101251.41;;;10.16;70.85
64158;BME280;50449;51.528;5.076;2023-02-23T06:05:49;101249.50;;;10.17;71.02
64158;BME280;50449;51.528;5.076;2023-02-23T06:08:15;101247.88;;;10.16;71.04
64158;BME280;50449;51.528;5.076;2023-02-23T06:10:40;101255.16;;;10.15;70.88
64158;BME280;50449;51.528;5.076;2023-02-23T06:13:06;101253.28;;;10.16;70.86
64158;BME280;50449;51.528;5.076;2023-02-23T06:15:31;101262.41;;;10.15;70.87
64158;BME280;50449;51.528;5.076;2023-02-23T06:17:57;101258.88;;;10.14;70.83
64158;BME280;50449;51.528;5.076;2023-02-23T06:20:22;101258.06;;;10.14;70.65
64158;BME280;50449;51.528;5.076;2023-02-23T06:22:47;101262.66;;;10.13;71.02
64158;BME280;50449;51.528;5.076;2023-02-23T06:25:13;101266.16;;;10.14;70.88
64158;BME280;50449;51.528;5.076;2023-02-23T06:27:39;101269.09;;;10.12;71.13
64158;BME280;50449;51.528;5.076;2023-02-23T06:30:05;101278.00;;;10.13;71.02
64158;BME280;50449;51.528;5.076;2023-02-23T06:32:31;101279.88;;;10.12;71.07
64158;BME280;50449;51.528;5.076;2023-02-23T06:34:56;101283.66;;;10.11;71.07
64158;BME280;50449;51.528;5.076;2023-02-23T06:37:22;101287.16;;;10.12;71.13
64158;BME280;50449;51.528;5.076;2023-02-23T06:39:47;101286.34;;;10.11;70.89
64158;BME280;50449;51.528;5.076;2023-02-23T06:42:13;101288.22;;;10.11;70.97
64158;BME280;50449;51.528;5.076;2023-02-23T06:44:39;101299.03;;;10.11;70.86
64158;BME280;50449;51.528;5.076;2023-02-23T06:47:04;101300.06;;;10.10;71.00
64158;BME280;50449;51.528;5.076;2023-02-23T06:49:30;101301.94;;;10.09;71.07
64158;BME280;50449;51.528;5.076;2023-02-23T06:51:55;101307.34;;;10.09;70.85
64158;BME280;50449;51.528;5.076;2023-02-23T06:54:22;101307.34;;;10.09;70.83
64158;BME280;50449;51.528;5.076;2023-02-23T06:56:47;101314.63;;;10.09;70.84
64158;BME280;50449;51.528;5.076;2023-02-23T06:59:14;101307.53;;;10.08;70.93
64158;BME280;50449;51.528;5.076;2023-02-23T07:01:39;101312.13;;;10.07;70.79
64158;BME280;50449;51.528;5.076;2023-02-23T07:04:06;101315.88;;;10.06;71.14
64158;BME280;50449;51.528;5.076;2023-02-23T07:06:32;101319.41;;;10.07;71.01
64158;BME280;50449;51.528;5.076;2023-02-23T07:08:57;101328.56;;;10.06;70.90
64158;BME280;50449;51.528;5.076;2023-02-23T07:11:23;101325.03;;;10.05;71.06
64158;BME280;50449;51.528;5.076;2023-02-23T07:13:51;101326.91;;;10.05;70.97
64158;BME280;50449;51.528;5.076;2023-02-23T07:16:16;101325.25;;;10.04;70.92
64158;BME280;50449;51.528;5.076;2023-02-23T07:18:42;101327.16;;;10.03;70.98
64158;BME280;50449;51.528;5.076;2023-02-23T07:21:07;101338.75;;;10.04;71.12
64158;BME280;50449;51.528;5.076;2023-02-23T07:23:33;101340.63;;;10.03;71.22
64158;BME280;50449;51.528;5.076;2023-02-23T07:25:58;101344.38;;;10.02;70.94
64158;BME280;50449;51.528;5.076;2023-02-23T07:28:25;101345.44;;;10.01;70.92
64158;BME280;50449;51.528;5.076;2023-02-23T07:30:57;101355.41;;;10.01;71.08
64158;BME280;50449;51.528;5.076;2023-02-23T07:33:23;101350.00;;;10.01;71.00
64158;BME280;50449;51.528;5.076;2023-02-23T07:35:50;101346.47;;;10.00;71.26
64158;BME280;50449;51.528;5.076;2023-02-23T07:38:15;101361.00;;;9.99;70.73
64158;BME280;50449;51.528;5.076;2023-02-23T07:40:41;101363.72;;;9.99;71.26
64158;BME280;50449;51.528;5.076;2023-02-23T07:43:07;101363.94;;;9.97;70.90
64158;BME280;50449;51.528;5.076;2023-02-23T07:45:32;101373.69;;;9.99;70.97
64158;BME280;50449;51.528;5.076;2023-02-23T07:47:58;101380.97;;;9.98;70.96
64158;BME280;50449;51.528;5.076;2023-02-23T07:50:24;101384.69;;;9.97;70.76
64158;BME280;50449;51.528;5.076;2023-02-23T07:52:50;101387.41;;;9.97;71.09
64158;BME280;50449;51.528;5.076;2023-02-23T07:55:16;101393.63;;;9.97;70.91
64158;BME280;50449;51.528;5.076;2023-02-23T07:57:42;101388.47;;;9.96;71.09
64158;BME280;50449;51.528;5.076;2023-02-23T08:00:08;101380.34;;;9.96;70.95
64158;BME280;50449;51.528;5.076;2023-02-23T08:02:33;101384.94;;;9.95;70.84
64158;BME280;50449;51.528;5.076;2023-02-23T08:04:59;101387.63;;;9.95;70.97
64158;BME280;50449;51.528;5.076;2023-02-23T08:07:24;101390.34;;;9.95;70.82
64158;BME280;50449;51.528;5.076;2023-02-23T08:09:51;101407.34;;;9.96;70.89
64158;BME280;50449;51.528;5.076;2023-02-23T08:12:16;101411.06;;;9.95;71.10
64158;BME280;50449;51.528;5.076;2023-02-23T08:14:42;101401.94;;;9.96;70.94
64158;BME280;50449;51.528;5.076;2023-02-23T08:17:08;101411.94;;;9.95;71.09
64158;BME280;50449;51.528;5.076;2023-02-23T08:19:35;101410.25;;;9.94;71.27
64158;BME280;50449;51.528;5.076;2023-02-23T08:22:02;101412.94;;;9.94;71.40
64158;BME280;50449;51.528;5.076;2023-02-23T08:24:27;101420.03;;;9.95;70.86
64158;BME280;50449;51.528;5.076;2023-02-23T08:26:55;101422.72;;;9.95;71.01
64158;BME280;50449;51.528;5.076;2023-02-23T08:29:20;101415.66;;;9.94;71.34
64158;BME280;50449;51.528;5.076;2023-02-23T08:31:46;101420.22;;;9.94;71.15
64158;BME280;50449;51.528;5.076;2023-02-23T08:34:12;101426.44;;;9.94;70.88
64158;BME280;50449;51.528;5.076;2023-02-23T08:36:38;101429.97;;;9.95;71.12
64158;BME280;50449;51.528;5.076;2023-02-23T08:39:05;101423.75;;;9.94;71.20
64158;BME280;50449;51.528;5.076;2023-02-23T08:41:32;101430.81;;;9.95;71.03
64158;BME280;50449;51.528;5.076;2023-02-23T08:43:58;101425.63;;;9.94;71.01
64158;BME280;50449;51.528;5.076;2023-02-23T08:46:23;101431.84;;;9.94;71.07
64158;BME280;50449;51.528;5.076;2023-02-23T08:48:49;101429.16;;;9.94;71.21
64158;BME280;50449;51.528;5.076;2023-02-23T08:51:14;101437.25;;;9.94;70.96
64158;BME280;50449;51.528;5.076;2023-02-23T08:53:40;101436.44;;;9.94;71.09
64158;BME280;50449;51.528;5.076;2023-02-23T08:56:06;101439.13;;;9.94;71.23
64158;BME280;50449;51.528;5.076;2023-02-23T08:58:33;101439.94;;;9.94;71.02
64158;BME280;50449;51.528;5.076;2023-02-23T09:00:59;101444.53;;;9.94;71.26
64158;BME280;50449;51.528;5.076;2023-02-23T09:03:26;101454.25;;;9.95;71.14
64158;BME280;50449;51.528;5.076;2023-02-23T09:05:54;101448.03;;;9.94;71.09
64158;BME280;50449;51.528;5.076;2023-02-23T09:08:20;101450.75;;;9.94;71.01
64158;BME280;50449;51.528;5.076;2023-02-23T09:10:45;101450.97;;;9.93;71.09
64158;BME280;50449;51.528;5.076;2023-02-23T09:13:12;101471.50;;;9.94;70.85
64158;BME280;50449;51.528;5.076;2023-02-23T09:15:38;101470.69;;;9.93;71.28
64158;BME280;50449;51.528;5.076;2023-02-23T09:18:08;101468.81;;;9.94;70.99
64158;BME280;50449;51.528;5.076;2023-02-23T09:20:35;101470.69;;;9.93;71.10
64158;BME280;50449;51.528;5.076;2023-02-23T09:23:00;101468.81;;;9.94;71.18
64158;BME280;50449;51.528;5.076;2023-02-23T09:25:26;101483.13;;;9.94;71.29
64158;BME280;50449;51.528;5.076;2023-02-23T09:27:54;101471.50;;;9.94;71.11
64158;BME280;50449;51.528;5.076;2023-02-23T09:30:21;101479.59;;;9.94;71.09
64158;BME280;50449;51.528;5.076;2023-02-23T09:32:47;101485.81;;;9.94;70.95
64158;BME280;50449;51.528;5.076;2023-02-23T09:35:14;101481.25;;;9.95;71.19
64158;BME280;50449;51.528;5.076;2023-02-23T09:37:43;101482.09;;;9.95;71.25
64158;BME280;50449;51.528;5.076;2023-02-23T09:40:15;101484.78;;;9.95;70.97
64158;BME280;50449;51.528;5.076;2023-02-23T09:43:11;101475.84;;;9.95;71.00
64158;BME280;50449;51.528;5.076;2023-02-23T09:45:39;101482.09;;;9.95;71.18
64158;BME280;50449;51.528;5.076;2023-02-23T09:48:13;101491.00;;;9.96;71.02
64158;BME280;50449;51.528;5.076;2023-02-23T09:50:44;101487.50;;;9.95;71.14
64158;BME280;50449;51.528;5.076;2023-02-23T09:53:26;101486.44;;;9.96;71.06
64158;BME280;50449;51.528;5.076;2023-02-23T09:55:55;101495.59;;;9.95;71.01
64158;BME280;50449;51.528;5.076;2023-02-23T09:58:29;101499.94;;;9.96;71.22
64158;BME280;50449;51.528;5.076;2023-02-23T10:03:32;101493.72;;;9.96;71.02
64158;BME280;50449;51.528;5.076;2023-02-23T10:06:01;101491.00;;;9.96;70.98
64158;BME280;50449;51.528;5.076;2023-02-23T10:17:08;101497.22;;;9.96;71.17
64158;BME280;50449;51.528;5.076;2023-02-23T10:20:11;101492.66;;;9.97;71.12
64158;BME280;50449;51.528;5.076;2023-02-23T10:22:38;101487.50;;;9.95;71.32
64158;BME280;50449;51.528;5.076;2023-02-23T10:25:13;101481.03;;;9.96;71.28
64158;BME280;50449;51.528;5.076;2023-02-23T10:27:45;101482.09;;;9.95;70.92
64158;BME280;50449;51.528;5.076;2023-02-23T10:30:16;101489.94;;;9.97;71.25
64158;BME280;50449;51.528;5.076;2023-02-23T10:35:20;101498.66;;;9.99;70.99
64158;BME280;50449;51.528;5.076;2023-02-23T10:37:46;101504.88;;;10.00;71.19
64158;BME280;50449;51.528;5.076;2023-02-23T10:40:20;101501.16;;;10.01;71.16
64158;BME280;50449;51.528;5.076;2023-02-23T10:42:48;101498.22;;;10.02;70.96
64158;BME280;50449;51.528;5.076;2023-02-23T10:45:22;101504.44;;;10.03;71.18
64158;BME280;50449;51.528;5.076;2023-02-23T10:47:55;101499.66;;;10.05;70.90
64158;BME280;50449;51.528;5.076;2023-02-23T10:50:22;101504.03;;;10.06;71.26
64158;BME280;50449;51.528;5.076;2023-02-23T10:52:54;101505.66;;;10.07;71.12
64158;BME280;50449;51.528;5.076;2023-02-23T10:55:29;101512.69;;;10.08;70.97
64158;BME280;50449;51.528;5.076;2023-02-23T10:58:07;101500.88;;;10.09;71.27
64158;BME280;50449;51.528;5.076;2023-02-23T11:00:37;101513.91;;;10.12;70.97
64158;BME280;50449;51.528;5.076;2023-02-23T11:03:22;101515.56;;;10.13;70.87
64158;BME280;50449;51.528;5.076;2023-02-23T11:05:49;101511.84;;;10.14;71.06
64158;BME280;50449;51.528;5.076;2023-02-23T11:08:24;101515.34;;;10.14;71.13
64158;BME280;50449;51.528;5.076;2023-02-23T11:11:05;101518.88;;;10.15;71.02
64158;BME280;50449;51.528;5.076;2023-02-23T11:13:36;101518.66;;;10.16;71.01
64158;BME280;50449;51.528;5.076;2023-02-23T11:16:09;101520.31;;;10.17;71.04
64158;BME280;50449;51.528;5.076;2023-02-23T11:18:36;101520.31;;;10.17;71.07
64158;BME280;50449;51.528;5.076;2023-02-23T11:21:02;101520.91;;;10.19;71.16
64158;BME280;50449;51.528;5.076;2023-02-23T11:23:34;101512.59;;;10.21;70.98
64158;BME280;50449;51.528;5.076;2023-02-23T11:26:03;101506.13;;;10.22;70.84
64158;BME280;50449;51.528;5.076;2023-02-23T11:28:33;101508.63;;;10.24;71.01
64158;BME280;50449;51.528;5.076;2023-02-23T11:31:03;101495.75;;;10.26;70.95
64158;BME280;50449;51.528;5.076;2023-02-23T11:33:33;101497.38;;;10.27;71.10
64158;BME280;50449;51.528;5.076;2023-02-23T11:39:06;101498.03;;;10.29;70.83
64158;BME280;50449;51.528;5.076;2023-02-23T11:41:33;101494.25;;;10.30;71.17
64158;BME280;50449;51.528;5.076;2023-02-23T11:44:01;101491.56;;;10.30;71.10
64158;BME280;50449;51.528;5.076;2023-02-23T11:46:30;101492.16;;;10.32;71.05
64158;BME280;50449;51.528;5.076;2023-02-23T11:48:59;101495.69;;;10.32;71.26
64158;BME280;50449;51.528;5.076;2023-02-23T11:51:37;101496.31;;;10.34;71.12
64158;BME280;50449;51.528;5.076;2023-02-23T11:54:05;101505.22;;;10.35;71.21
64158;BME280;50449;51.528;5.076;2023-02-23T11:56:33;101508.75;;;10.35;71.17
64158;BME280;50449;51.528;5.076;2023-02-23T11:59:05;101515.00;;;10.36;71.13
64158;BME280;50449;51.528;5.076;2023-02-23T12:04:10;101501.03;;;10.39;71.38
64158;BME280;50449;51.528;5.076;2023-02-23T12:06:49;101506.44;;;10.39;71.16
64158;BME280;50449;51.528;5.076;2023-02-23T12:09:25;101491.06;;;10.39;71.15
64158;BME280;50449;51.528;5.076;2023-02-23T12:11:57;101494.38;;;10.42;71.19
64158;BME280;50449;51.528;5.076;2023-02-23T12:14:48;101485.19;;;10.43;71.28
64158;BME280;50449;51.528;5.076;2023-02-23T12:17:27;101491.41;;;10.43;71.02
64158;BME280;50449;51.528;5.076;2023-02-23T12:20:29;101493.91;;;10.45;71.23
64158;BME280;50449;51.528;5.076;2023-02-23T12:23:18;101488.50;;;10.45;71.17
64158;BME280;50449;51.528;5.076;2023-02-23T12:25:50;101476.88;;;10.44;71.41
64158;BME280;50449;51.528;5.076;2023-02-23T12:28:24;101482.06;;;10.46;71.20
64158;BME280;50449;51.528;5.076;2023-02-23T12:31:18;101481.84;;;10.47;71.04
64158;BME280;50449;51.528;5.076;2023-02-23T12:33:50;101484.31;;;10.49;71.02
64158;BME280;50449;51.528;5.076;2023-02-23T12:36:40;101477.66;;;10.51;71.03
64158;BME280;50449;51.528;5.076;2023-02-23T12:41:54;101477.41;;;10.53;71.17
64158;BME280;50449;51.528;5.076;2023-02-23T12:44:58;101474.50;;;10.54;71.09
64158;BME280;50449;51.528;5.076;2023-02-23T12:47:31;101478.84;;;10.55;70.91
64158;BME280;50449;51.528;5.076;2023-02-23T12:50:01;101476.97;;;10.56;71.03
64158;BME280;50449;51.528;5.076;2023-02-23T12:52:33;101485.66;;;10.58;70.97
64158;BME280;50449;51.528;5.076;2023-02-23T12:55:01;101476.75;;;10.57;71.01
64158;BME280;50449;51.528;5.076;2023-02-23T12:58:05;101484.63;;;10.59;71.13
64158;BME280;50449;51.528;5.076;2023-02-23T13:12:05;101501.81;;;10.65;70.75
64158;BME280;50449;51.528;5.076;2023-02-23T13:20:24;101501.59;;;10.66;70.46
64158;BME280;50449;51.528;5.076;2023-02-23T13:22:59;101500.53;;;10.67;70.47
64158;BME280;50449;51.528;5.076;2023-02-23T13:25:51;101504.88;;;10.68;70.28
64158;BME280;50449;51.528;5.076;2023-02-23T13:28:35;101502.78;;;10.70;70.46
64158;BME280;50449;51.528;5.076;2023-02-23T13:31:03;101498.19;;;10.71;70.64
64158;BME280;50449;51.528;5.076;2023-02-23T13:33:29;101505.28;;;10.72;70.50
64158;BME280;50449;51.528;5.076;2023-02-23T13:36:01;101501.28;;;10.74;70.45
64158;BME280;50449;51.528;5.076;2023-02-23T13:38:29;101498.59;;;10.74;70.46
64158;BME280;50449;51.528;5.076;2023-02-23T13:41:10;101503.75;;;10.76;70.55
64158;BME280;50449;51.528;5.076;2023-02-23T13:43:48;101504.81;;;10.75;70.38
64158;BME280;50449;51.528;5.076;2023-02-23T13:46:42;101511.84;;;10.76;70.71
64158;BME280;50449;51.528;5.076;2023-02-23T13:49:21;101499.19;;;10.76;70.67
64158;BME280;50449;51.528;5.076;2023-02-23T13:54:34;101485.69;;;10.76;70.43
64158;BME280;50449;51.528;5.076;2023-02-23T13:57:03;101493.78;;;10.76;70.35
64158;BME280;50449;51.528;5.076;2023-02-23T13:59:42;101497.31;;;10.77;70.63
64158;BME280;50449;51.528;5.076;2023-02-23T14:04:56;101511.66;;;10.77;70.72
64158;BME280;50449;51.528;5.076;2023-02-23T14:07:29;101513.28;;;10.78;70.71
64158;BME280;50449;51.528;5.076;2023-02-23T14:09:58;101514.97;;;10.79;70.68
64158;BME280;50449;51.528;5.076;2023-02-23T14:12:32;101510.16;;;10.81;70.59
64158;BME280;50449;51.528;5.076;2023-02-23T14:17:57;101512.84;;;10.81;70.67
64158;BME280;50449;51.528;5.076;2023-02-23T14:32:02;101507.22;;;10.83;70.66
64158;BME280;50449;51.528;5.076;2023-02-23T14:39:49;101511.59;;;10.84;70.54
64158;BME280;50449;51.528;5.076;2023-02-23T14:42:26;101513.47;;;10.83;70.70
64158;BME280;50449;51.528;5.076;2023-02-23T14:44:54;101511.78;;;10.82;70.60
64158;BME280;50449;51.528;5.076;2023-02-23T14:47:25;101512.41;;;10.85;70.48
64158;BME280;50449;51.528;5.076;2023-02-23T14:50:00;101509.69;;;10.85;70.44
64158;BME280;50449;51.528;5.076;2023-02-23T14:52:34;101498.69;;;10.86;70.57
64158;BME280;50449;51.528;5.076;2023-02-23T14:57:37;101502.19;;;10.87;70.35